createdAt,value
2019-03-28T00:03:00.228Z,11.07
2019-03-28T00:07:05.930Z,10.97
2019-03-28T00:11:11.616Z,10.90
2019-03-28T00:15:17.324Z,10.89
2019-03-28T00:19:23.017Z,10.77
2019-03-28T00:23:42.635Z,10.69
2019-03-28T00:27:48.336Z,10.62
2019-03-28T00:31:54.128Z,10.60
2019-03-28T00:36:00.293Z,10.43
2019-03-28T00:40:08.718Z,10.47
2019-03-28T00:44:14.414Z,10.64
2019-03-28T00:48:20.125Z,10.82
2019-03-28T00:52:25.811Z,10.90
2019-03-28T00:56:44.746Z,10.63
2019-03-28T01:00:38.964Z,10.26
2019-03-28T01:04:44.653Z,10.00
2019-03-28T01:08:50.356Z,10.08
2019-03-28T01:12:56.054Z,10.12
2019-03-28T01:17:01.776Z,10.13
2019-03-28T01:21:07.499Z,10.13
2019-03-28T01:25:13.265Z,10.28
2019-03-28T01:29:18.950Z,10.41
2019-03-28T01:33:24.641Z,10.43
2019-03-28T01:37:30.339Z,10.36
2019-03-28T01:41:36.114Z,10.15
2019-03-28T01:45:41.884Z,10.13
2019-03-28T01:49:47.554Z,10.06
2019-03-28T01:53:53.240Z,9.97
2019-03-28T01:57:58.936Z,10.02
2019-03-28T02:02:04.625Z,9.99
2019-03-28T02:06:10.337Z,10.06
2019-03-28T02:10:17.859Z,10.07
2019-03-28T02:14:23.545Z,10.00
2019-03-28T02:18:29.293Z,9.84
2019-03-28T02:22:35.093Z,9.88
2019-03-28T02:26:40.841Z,10.02
2019-03-28T02:30:46.538Z,9.92
2019-03-28T02:34:52.305Z,10.01
2019-03-28T02:38:58.587Z,9.93
2019-03-28T02:43:04.362Z,9.79
2019-03-28T02:47:10.074Z,9.53
2019-03-28T02:51:15.728Z,9.28
2019-03-28T02:55:21.408Z,9.37
2019-03-28T02:59:27.098Z,9.56
2019-03-28T03:03:32.782Z,9.76
2019-03-28T03:07:38.486Z,9.81
2019-03-28T03:11:44.180Z,9.86
2019-03-28T03:15:49.869Z,9.76
2019-03-28T03:19:55.571Z,9.72
2019-03-28T03:24:01.255Z,9.45
2019-03-28T03:28:06.929Z,9.44
2019-03-28T03:32:12.622Z,9.47
2019-03-28T03:36:18.313Z,9.56
2019-03-28T03:40:24.130Z,9.53
2019-03-28T03:44:29.916Z,9.58
2019-03-28T03:48:35.656Z,9.66
2019-03-28T03:52:41.651Z,9.83
2019-03-28T03:56:47.583Z,9.79
2019-03-28T04:00:53.306Z,9.41
2019-03-28T04:04:58.988Z,9.43
2019-03-28T04:09:06.131Z,9.65
2019-03-28T04:13:11.836Z,9.63
2019-03-28T04:17:17.605Z,9.52
2019-03-28T04:21:23.322Z,9.51
2019-03-28T04:25:29.076Z,9.56
2019-03-28T04:29:34.741Z,9.58
2019-03-28T04:33:40.537Z,9.52
2019-03-28T04:37:47.456Z,9.43
2019-03-28T04:41:53.124Z,9.56
2019-03-28T04:45:58.879Z,9.69
2019-03-28T04:50:06.594Z,9.60
2019-03-28T04:54:12.301Z,9.48
2019-03-28T04:58:17.969Z,9.35
2019-03-28T05:02:23.657Z,9.05
2019-03-28T05:06:29.344Z,9.13
2019-03-28T05:10:36.009Z,9.38
2019-03-28T05:14:41.693Z,9.43
2019-03-28T05:18:47.376Z,9.60
2019-03-28T05:22:54.107Z,9.57
2019-03-28T05:26:59.805Z,9.60
2019-03-28T05:31:05.468Z,9.40
2019-03-28T05:35:11.501Z,9.15
2019-03-28T05:39:17.192Z,9.13
2019-03-28T05:43:22.892Z,9.08
2019-03-28T05:47:29.440Z,9.18
2019-03-28T05:51:35.204Z,9.45
2019-03-28T05:55:40.895Z,9.40
2019-03-28T05:59:46.581Z,9.47
2019-03-28T06:03:52.268Z,9.50
2019-03-28T06:07:57.934Z,9.45
2019-03-28T06:12:03.720Z,9.61
2019-03-28T06:16:09.405Z,9.80
2019-03-28T06:20:15.434Z,9.96
2019-03-28T06:24:21.122Z,10.05
2019-03-28T06:28:26.876Z,10.20
2019-03-28T06:32:42.233Z,10.34
2019-03-28T06:36:40.504Z,10.22
2019-03-28T06:40:46.462Z,10.09
2019-03-28T06:44:52.173Z,10.39
2019-03-28T06:48:57.837Z,10.83
2019-03-28T06:53:03.530Z,11.61
2019-03-28T06:57:09.275Z,12.13
2019-03-28T07:01:15.215Z,12.35
2019-03-28T07:05:22.266Z,12.63
2019-03-28T07:09:27.964Z,12.77
2019-03-28T07:13:33.797Z,13.14
2019-03-28T07:17:39.488Z,13.58
2019-03-28T07:21:45.229Z,13.80
2019-03-28T07:25:50.902Z,14.23
2019-03-28T07:29:56.599Z,14.60
2019-03-28T07:34:02.294Z,14.70
2019-03-28T07:38:08.068Z,15.27
2019-03-28T07:42:13.763Z,15.51
2019-03-28T07:46:19.449Z,15.90
2019-03-28T07:50:26.127Z,16.26
2019-03-28T07:54:31.822Z,16.53
2019-03-28T07:58:38.617Z,17.02
2019-03-28T08:02:44.290Z,17.43
2019-03-28T08:06:51.205Z,17.76
2019-03-28T08:10:57.550Z,18.28
2019-03-28T08:15:04.763Z,18.63
2019-03-28T08:19:11.460Z,18.76
2019-03-28T08:23:17.332Z,19.02
2019-03-28T08:27:23.087Z,19.79
2019-03-28T08:31:28.903Z,20.22
2019-03-28T08:35:37.316Z,20.65
2019-03-28T08:39:44.674Z,21.05
2019-03-28T08:43:50.497Z,21.43
2019-03-28T08:47:56.233Z,21.98
2019-03-28T08:52:01.928Z,22.16
2019-03-28T08:56:07.700Z,22.76
2019-03-28T09:00:16.733Z,23.29
2019-03-28T09:04:22.978Z,23.77
2019-03-28T09:08:28.652Z,24.56
2019-03-28T09:12:35.367Z,24.87
2019-03-28T09:16:41.467Z,25.12
2019-03-28T09:20:47.333Z,25.41
2019-03-28T09:25:17.595Z,25.59
2019-03-28T09:29:23.345Z,25.80
2019-03-28T09:33:30.080Z,26.09
2019-03-28T09:37:35.797Z,26.19
2019-03-28T09:42:18.100Z,26.28
2019-03-28T09:46:23.775Z,26.47
2019-03-28T09:50:29.492Z,26.64
2019-03-28T09:54:36.316Z,26.89
2019-03-28T09:58:42.006Z,26.82
2019-03-28T10:02:49.286Z,26.42
2019-03-28T10:06:55.023Z,26.61
2019-03-28T10:11:00.701Z,27.22
2019-03-28T10:15:09.453Z,27.33
2019-03-28T10:19:17.826Z,26.81
2019-03-28T10:23:23.514Z,26.85
2019-03-28T10:27:29.218Z,27.40
2019-03-28T10:31:34.992Z,28.07
2019-03-28T10:35:40.806Z,28.73
2019-03-28T10:39:46.533Z,29.27
2019-03-28T10:43:52.243Z,29.37
2019-03-28T10:47:58.082Z,30.02
2019-03-28T10:52:04.155Z,30.60
2019-03-28T10:56:21.048Z,30.48
2019-03-28T11:05:35.420Z,30.97
2019-03-28T11:09:41.229Z,30.75
2019-03-28T11:13:46.941Z,31.14
2019-03-28T11:17:52.662Z,28.59
2019-03-28T11:21:58.354Z,28.09
2019-03-28T11:26:04.115Z,29.75
2019-03-28T11:30:10.721Z,30.55
2019-03-28T11:34:16.528Z,31.12
2019-03-28T11:38:22.220Z,31.72
2019-03-28T11:42:27.995Z,31.96
2019-03-28T11:46:33.712Z,32.34
2019-03-28T11:50:39.432Z,32.58
2019-03-28T11:54:45.122Z,32.69
2019-03-28T11:58:50.809Z,32.44
2019-03-28T12:02:56.506Z,31.65
2019-03-28T12:07:02.205Z,31.25
2019-03-28T12:11:07.919Z,30.12
2019-03-28T12:15:14.234Z,28.34
2019-03-28T12:19:19.937Z,27.48
2019-03-28T12:23:25.690Z,26.47
2019-03-28T12:27:31.378Z,25.19
2019-03-28T12:31:37.077Z,23.98
2019-03-28T12:35:42.851Z,23.18
2019-03-28T12:39:48.531Z,22.54
2019-03-28T12:43:54.231Z,22.24
2019-03-28T12:47:59.916Z,21.99
2019-03-28T12:52:07.327Z,21.68
2019-03-28T12:56:13.034Z,21.50
2019-03-28T13:00:23.308Z,21.26
2019-03-28T13:04:29.003Z,21.06
2019-03-28T13:08:34.725Z,20.91
2019-03-28T13:12:40.553Z,20.88
2019-03-28T13:16:46.266Z,20.85
2019-03-28T13:20:52.038Z,20.79
2019-03-28T13:24:57.721Z,20.73
2019-03-28T13:29:03.472Z,20.66
2019-03-28T13:33:10.688Z,20.57
2019-03-28T13:37:16.377Z,20.81
2019-03-28T13:41:22.074Z,21.37
2019-03-28T13:45:27.777Z,21.78
2019-03-28T13:49:33.463Z,21.57
2019-03-28T13:53:40.081Z,21.62
2019-03-28T13:57:45.843Z,21.81
2019-03-28T14:01:51.605Z,22.62
2019-03-28T14:05:57.308Z,22.57
2019-03-28T14:10:03.068Z,22.63
2019-03-28T14:14:08.754Z,22.31
2019-03-28T14:18:14.487Z,21.91
2019-03-28T14:22:20.199Z,21.51
2019-03-28T14:26:25.963Z,21.18
2019-03-28T14:30:31.670Z,21.13
2019-03-28T14:34:39.838Z,20.97
2019-03-28T14:38:44.774Z,20.73
2019-03-28T14:42:51.442Z,20.68
2019-03-28T14:46:57.163Z,20.70
2019-03-28T14:51:03.074Z,20.68
2019-03-28T14:55:09.010Z,20.90
2019-03-28T14:59:15.487Z,20.65
2019-03-28T15:03:26.665Z,20.13
2019-03-28T15:07:28.803Z,19.84
2019-03-28T15:11:34.511Z,19.68
2019-03-28T15:15:40.199Z,19.77
2019-03-28T15:19:45.941Z,19.56
2019-03-28T15:23:51.683Z,19.34
2019-03-28T15:27:57.517Z,19.14
2019-03-28T15:32:03.306Z,18.90
2019-03-28T15:36:09.026Z,18.71
2019-03-28T15:40:16.483Z,18.70
2019-03-28T15:44:22.175Z,18.72
2019-03-28T15:48:27.875Z,18.82
2019-03-28T15:52:33.571Z,18.85
2019-03-28T15:56:39.524Z,18.74
2019-03-28T16:00:45.301Z,18.71
2019-03-28T16:04:51.054Z,18.69
2019-03-28T16:08:56.748Z,18.59
2019-03-28T16:13:02.549Z,18.44
2019-03-28T16:17:09.095Z,18.40
2019-03-28T16:21:14.880Z,18.28
2019-03-28T16:25:20.578Z,18.25
2019-03-28T16:29:26.269Z,18.26
2019-03-28T16:33:32.045Z,18.25
2019-03-28T16:37:39.974Z,18.25
2019-03-28T16:41:49.627Z,18.19
2019-03-28T16:45:55.493Z,18.17
2019-03-28T16:50:03.672Z,18.14
2019-03-28T16:54:09.412Z,18.03
2019-03-28T16:58:15.190Z,17.99
2019-03-28T17:02:21.854Z,17.93
2019-03-28T17:06:27.857Z,17.77
2019-03-28T17:10:45.397Z,17.81
2019-03-28T17:14:51.740Z,17.84
2019-03-28T17:18:57.487Z,17.77
2019-03-28T17:23:03.203Z,17.68
2019-03-28T17:27:08.899Z,17.58
2019-03-28T17:31:14.601Z,17.45
2019-03-28T17:35:20.299Z,17.31
2019-03-28T17:39:26.088Z,17.21
2019-03-28T17:43:32.049Z,17.18
2019-03-28T17:47:37.755Z,17.13
2019-03-28T17:51:43.463Z,17.09
2019-03-28T17:55:49.172Z,17.00
2019-03-28T17:59:54.940Z,16.98
2019-03-28T18:04:00.812Z,16.93
2019-03-28T18:08:07.490Z,16.87
2019-03-28T18:12:13.844Z,16.82
2019-03-28T18:16:19.750Z,16.78
2019-03-28T18:20:25.619Z,16.74
2019-03-28T18:24:33.025Z,16.67
2019-03-28T18:37:10.577Z,16.46
2019-03-28T18:41:16.316Z,16.44
2019-03-28T18:45:22.047Z,16.48
2019-03-28T18:49:27.749Z,16.51
2019-03-28T18:53:33.510Z,16.51
2019-03-28T18:57:39.821Z,16.55
2019-03-28T19:01:45.574Z,16.63
2019-03-28T19:05:51.284Z,16.62
2019-03-28T19:09:56.994Z,16.58
2019-03-28T19:14:02.791Z,16.56
2019-03-28T19:18:08.557Z,16.54
2019-03-28T19:22:14.285Z,16.49
2019-03-28T19:26:19.994Z,16.48
2019-03-28T19:30:32.709Z,16.46
2019-03-28T19:34:38.411Z,16.46
2019-03-28T19:38:44.526Z,16.44
2019-03-28T19:42:50.249Z,16.41
2019-03-28T19:46:55.969Z,16.38
2019-03-28T19:51:02.270Z,16.29
2019-03-28T19:55:08.522Z,16.22
2019-03-28T19:59:14.378Z,16.22
2019-03-28T20:03:23.078Z,16.26
2019-03-28T20:07:27.473Z,16.22
2019-03-28T20:11:33.300Z,16.20
2019-03-28T20:15:39.476Z,16.20
2019-03-28T20:19:45.256Z,16.19
2019-03-28T20:23:50.965Z,16.20
2019-03-28T20:27:56.722Z,16.17
2019-03-28T20:32:02.422Z,16.17
2019-03-28T20:36:35.659Z,16.15
2019-03-28T20:40:16.199Z,16.14
2019-03-28T20:44:22.018Z,16.11
2019-03-28T20:48:27.924Z,16.09
2019-03-28T20:52:33.645Z,16.05
2019-03-28T20:56:39.332Z,16.02
2019-03-28T21:00:47.780Z,16.00
2019-03-28T21:04:53.547Z,15.98
2019-03-28T21:08:59.250Z,16.02
2019-03-28T21:13:06.536Z,16.02
2019-03-28T21:17:12.295Z,16.02
2019-03-28T21:21:18.081Z,16.03
2019-03-28T21:25:23.791Z,16.06
2019-03-28T21:29:29.510Z,16.03
2019-03-28T21:33:35.235Z,16.02
2019-03-28T21:37:40.940Z,15.99
2019-03-28T21:41:46.639Z,15.97
2019-03-28T21:45:52.391Z,15.91
2019-03-28T21:49:58.093Z,15.86
2019-03-28T21:54:05.141Z,15.81
2019-03-28T21:59:17.814Z,15.76
2019-03-28T22:03:23.590Z,15.69
2019-03-28T22:08:17.383Z,15.64
2019-03-28T22:12:23.079Z,15.74
2019-03-28T22:16:28.791Z,15.67
2019-03-28T22:20:34.538Z,15.70
2019-03-28T22:24:40.235Z,15.61
2019-03-28T22:28:46.505Z,15.62
2019-03-28T22:32:52.231Z,15.66
2019-03-28T22:36:59.973Z,15.65
2019-03-28T22:41:20.203Z,15.56
2019-03-28T22:45:25.894Z,15.45
2019-03-28T22:49:31.936Z,15.47
2019-03-28T22:53:37.787Z,15.50
2019-03-28T22:57:43.531Z,15.55
2019-03-28T23:01:49.375Z,15.53
2019-03-28T23:05:55.062Z,15.47
2019-03-28T23:10:00.860Z,15.42
2019-03-28T23:14:07.730Z,15.36
2019-03-28T23:18:13.872Z,15.25
2019-03-28T23:22:19.525Z,15.16
2019-03-28T23:26:25.215Z,15.03
2019-03-28T23:30:31.039Z,15.05
2019-03-28T23:34:36.715Z,14.96
2019-03-28T23:38:42.438Z,15.07
2019-03-28T23:42:49.139Z,14.99
2019-03-28T23:46:54.906Z,14.89
2019-03-28T23:51:00.654Z,14.84
2019-03-28T23:55:08.701Z,14.82
2019-03-28T23:59:14.412Z,14.75
